Chevery, Canada
Current Conditions -  °F | °C
As of 12:00 PM on Friday 31 Oct 2014 (Local Time) from CWDH Reporting Station
Clear Clear  
Wind Chill: 38°   Ceiling: Unl
Heat Index: 42°   Visibility: 9mi
Dew Point: 28°   Wind: 7mph
Humidity: 57%   Direction: 280°W
Pressure: 29.9"   Gusts: NA
Location:  50.47°N, 59.6°W
Report Text: CWDH 311500Z AUTO 28006KT 9SM NSC 06/M02 A2990 RMK SLP128 T00581021 WSI/SWOB
Loading
Personal Weather Stations






























Interactive Weather Map
Tropical Storm Tracking
New forecast layout! Learn more

10-Day Weather Forecast

Advertisements
Track Severe Weather on mobile